Gaylordsville, Connecticut
Current Conditions -  °F | °C
As of 10:53 PM on Wednesday 22 Oct 2014 (Local Time) from KDXR Reporting Station
Light Rain Light Rain  
Wind Chill: 50°   Ceiling: 1500
Heat Index: 50°   Visibility: 10mi
Dew Point: 44°   Wind: 12mph
Humidity: 80%   Direction: 20°NNE
Pressure: 29.78"   Gusts: 23mph
Location:  41.65°N, 73.48°W
Report Text: KDXR 230253Z AUTO 02010G20KT 10SM -RA BKN015 OVC020 10/07 A2978 RMK AO2 SLP086 P0017 60032 T01000067 55014
Loading
Personal Weather Stations






























Interactive Weather Map New forecast layout! Learn more

10-Day Weather Forecast

Advertisements
Track Severe Weather on mobile